Time,TemperatureF,DewpointF,PressureIn,WindDirection,WindDirectionDegrees,WindSpeedMPH,WindSpeedGustMPH,Humidity,HourlyPrecipIn,Conditions,Clouds,dailyrainin,SoftwareType,DateUTC
2013-02-10 00:02:00,43.1,39.2,30.10,South,187,0.0,0.0,86,0.00,,,0.00,Wunderground v.1.15,2013-02-10 08:02:00,
2013-02-10 00:12:00,42.6,39.3,30.10,South,188,0.0,0.0,88,0.00,,,0.00,Wunderground v.1.15,2013-02-10 08:12:00,
2013-02-10 00:22:00,42.3,39.0,30.10,South,188,0.0,0.0,88,0.00,,,0.00,Wunderground v.1.15,2013-02-10 08:22:00,
2013-02-10 00:32:00,41.9,38.9,30.10,South,188,0.0,0.0,89,0.00,,,0.00,Wunderground v.1.15,2013-02-10 08:32:00,
2013-02-10 00:42:00,41.7,38.7,30.10,South,188,0.0,0.0,89,0.00,,,0.00,Wunderground v.1.15,2013-02-10 08:42:00,
2013-02-10 00:52:00,41.3,38.3,30.10,South,188,0.0,0.0,89,0.00,,,0.00,Wunderground v.1.15,2013-02-10 08:52:00,
2013-02-10 01:02:00,41.2,38.8,30.10,South,188,0.0,0.0,91,0.00,,,0.00,Wunderground v.1.15,2013-02-10 09:02:00,
2013-02-10 01:12:00,41.7,39.8,30.09,South,188,0.0,0.0,93,0.00,,,0.00,Wunderground v.1.15,2013-02-10 09:12:00,
2013-02-10 01:22:00,42.9,41.3,30.09,South,188,0.0,0.0,94,0.00,,,0.00,Wunderground v.1.15,2013-02-10 09:22:00,
2013-02-10 01:32:00,43.1,41.2,30.09,South,188,0.0,0.0,93,0.00,,,0.00,Wunderground v.1.15,2013-02-10 09:32:00,
2013-02-10 01:42:00,42.5,40.1,30.09,South,188,0.0,0.0,91,0.00,,,0.00,Wunderground v.1.15,2013-02-10 09:42:00,
2013-02-10 01:52:00,41.9,38.9,30.08,South,188,1.0,1.0,89,0.00,,,0.00,Wunderground v.1.15,2013-02-10 09:52:00,
2013-02-10 02:02:00,41.4,38.7,30.08,South,188,0.0,0.0,90,0.00,,,0.00,Wunderground v.1.15,2013-02-10 10:02:00,
2013-02-10 02:12:00,41.0,38.3,30.08,South,187,0.0,0.0,90,0.00,,,0.00,Wunderground v.1.15,2013-02-10 10:12:00,
2013-02-10 02:22:00,40.7,38.3,30.08,South,188,0.0,0.0,91,0.00,,,0.00,Wunderground v.1.15,2013-02-10 10:22:00,
2013-02-10 02:32:00,40.5,38.1,30.07,South,188,0.0,0.0,91,0.00,,,0.00,Wunderground v.1.15,2013-02-10 10:32:00,
2013-02-10 02:42:00,40.5,38.4,30.07,South,188,0.0,0.0,92,0.00,,,0.00,Wunderground v.1.15,2013-02-10 10:42:00,
2013-02-10 03:02:00,42.2,40.6,30.07,South,188,0.0,0.0,94,0.00,,,0.00,Wunderground v.1.15,2013-02-10 11:02:00,
2013-02-10 03:12:00,41.3,38.9,30.07,South,188,0.0,0.0,91,0.00,,,0.00,Wunderground v.1.15,2013-02-10 11:12:00,
2013-02-10 03:22:00,40.7,38.6,30.07,South,188,0.0,0.0,92,0.00,,,0.00,Wunderground v.1.15,2013-02-10 11:22:00,
2013-02-10 03:32:00,40.5,38.4,30.06,South,188,0.0,0.0,92,0.00,,,0.00,Wunderground v.1.15,2013-02-10 11:32:00,
2013-02-10 03:42:00,40.4,38.3,30.06,South,188,0.0,0.0,92,0.00,,,0.00,Wunderground v.1.15,2013-02-10 11:42:00,
2013-02-10 03:52:00,40.2,38.1,30.07,South,188,0.0,0.0,92,0.00,,,0.00,Wunderground v.1.15,2013-02-10 11:52:00,
2013-02-10 04:02:00,40.2,38.3,30.07,South,188,0.0,0.0,93,0.00,,,0.00,Wunderground v.1.15,2013-02-10 12:02:00,
2013-02-10 04:12:00,40.6,39.0,30.06,South,188,0.0,0.0,94,0.00,,,0.00,Wunderground v.1.15,2013-02-10 12:12:00,
2013-02-10 04:22:00,42.5,41.4,30.06,South,188,0.0,0.0,96,0.00,,,0.00,Wunderground v.1.15,2013-02-10 12:22:00,
2013-02-10 04:32:00,41.8,39.9,30.06,South,188,0.0,0.0,93,0.00,,,0.00,Wunderground v.1.15,2013-02-10 12:32:00,
2013-02-10 04:42:00,41.6,39.7,30.06,South,188,0.0,0.0,93,0.00,,,0.00,Wunderground v.1.15,2013-02-10 12:42:00,
2013-02-10 04:52:00,41.3,39.2,30.06,South,188,0.0,0.0,92,0.00,,,0.00,Wunderground v.1.15,2013-02-10 12:52:00,
2013-02-10 05:02:00,41.1,39.2,30.06,South,188,0.0,0.0,93,0.00,,,0.00,Wunderground v.1.15,2013-02-10 13:02:00,
2013-02-10 05:12:00,41.2,39.3,30.06,South,188,0.0,0.0,93,0.00,,,0.00,Wunderground v.1.15,2013-02-10 13:12:00,
2013-02-10 05:22:00,41.5,39.9,30.07,South,188,0.0,0.0,94,0.00,,,0.00,Wunderground v.1.15,2013-02-10 13:22:00,
2013-02-10 05:32:00,41.6,39.7,30.06,South,188,0.0,0.0,93,0.00,,,0.00,Wunderground v.1.15,2013-02-10 13:32:00,
2013-02-10 05:42:00,41.8,40.2,30.06,South,188,0.0,0.0,94,0.00,,,0.00,Wunderground v.1.15,2013-02-10 13:42:00,
2013-02-10 05:52:00,42.9,41.3,30.06,South,188,0.0,0.0,94,0.00,,,0.00,Wunderground v.1.15,2013-02-10 13:52:00,
2013-02-10 06:02:00,43.3,42.0,30.06,South,188,0.0,0.0,95,0.00,,,0.00,Wunderground v.1.15,2013-02-10 14:02:00,
2013-02-10 06:12:00,42.9,40.7,30.06,South,188,0.0,0.0,92,0.00,,,0.00,Wunderground v.1.15,2013-02-10 14:12:00,
2013-02-10 06:22:00,41.7,39.3,30.06,South,188,0.0,0.0,91,0.00,,,0.00,Wunderground v.1.15,2013-02-10 14:22:00,
2013-02-10 06:32:00,41.1,39.0,30.06,South,188,0.0,0.0,92,0.00,,,0.00,Wunderground v.1.15,2013-02-10 14:32:00,
2013-02-10 06:42:00,40.6,38.5,30.06,South,188,0.0,0.0,92,0.00,,,0.00,Wunderground v.1.15,2013-02-10 14:42:00,
2013-02-10 06:52:00,40.1,38.0,30.06,South,188,0.0,0.0,92,0.00,,,0.00,Wunderground v.1.15,2013-02-10 14:52:00,
2013-02-10 07:02:00,39.8,37.9,30.07,South,188,0.0,0.0,93,0.00,,,0.00,Wunderground v.1.15,2013-02-10 15:02:00,
2013-02-10 07:12:00,39.8,38.2,30.07,South,188,0.0,0.0,94,0.00,,,0.00,Wunderground v.1.15,2013-02-10 15:12:00,
2013-02-10 07:22:00,42.6,41.8,30.07,South,188,0.0,0.0,97,0.00,,,0.00,Wunderground v.1.15,2013-02-10 15:22:00,
2013-02-10 07:32:00,42.2,40.3,30.07,South,188,0.0,0.0,93,0.00,,,0.00,Wunderground v.1.15,2013-02-10 15:32:00,
2013-02-10 07:42:00,44.1,42.8,30.08,South,188,0.0,0.0,95,0.00,,,0.00,Wunderground v.1.15,2013-02-10 15:42:00,
2013-02-10 07:52:00,44.0,41.5,30.08,South,188,0.0,0.0,91,0.00,,,0.00,Wunderground v.1.15,2013-02-10 15:52:00,
2013-02-10 08:02:00,44.4,41.7,30.08,South,188,0.0,0.0,90,0.00,,,0.00,Wunderground v.1.15,2013-02-10 16:02:00,
2013-02-10 08:12:00,45.3,42.0,30.08,South,188,0.0,0.0,88,0.00,,,0.00,Wunderground v.1.15,2013-02-10 16:12:00,
2013-02-10 08:22:00,46.3,42.6,30.08,South,188,0.0,0.0,87,0.00,,,0.00,Wunderground v.1.15,2013-02-10 16:22:00,
2013-02-10 08:32:00,47.4,42.8,30.08,South,188,0.0,0.0,84,0.00,,,0.00,Wunderground v.1.15,2013-02-10 16:32:00,
2013-02-10 08:42:00,48.3,43.1,30.08,South,188,0.0,1.0,82,0.00,,,0.00,Wunderground v.1.15,2013-02-10 16:42:00,
2013-02-10 08:52:00,49.1,43.2,30.09,South,188,1.0,2.0,80,0.00,,,0.00,Wunderground v.1.15,2013-02-10 16:52:00,
2013-02-10 09:02:00,49.6,43.4,30.09,South,188,1.0,1.0,79,0.00,,,0.00,Wunderground v.1.15,2013-02-10 17:02:00,
2013-02-10 09:12:00,50.3,43.7,30.09,South,188,0.0,0.0,78,0.00,,,0.00,Wunderground v.1.15,2013-02-10 17:12:00,
2013-02-10 09:22:00,51.3,44.0,30.09,South,188,1.0,1.0,76,0.00,,,0.00,Wunderground v.1.15,2013-02-10 17:22:00,
2013-02-10 09:32:00,51.8,43.4,30.09,South,188,1.0,1.0,73,0.00,,,0.00,Wunderground v.1.15,2013-02-10 17:32:00,
2013-02-10 09:42:00,52.6,43.8,30.09,South,188,0.0,2.0,72,0.00,,,0.00,Wunderground v.1.15,2013-02-10 17:42:00,
2013-02-10 09:52:00,53.3,43.4,30.09,ESE,102,1.0,1.0,69,0.00,,,0.00,Wunderground v.1.15,2013-02-10 17:52:00,
2013-02-10 10:02:00,53.4,43.5,30.08,South,170,2.0,2.0,69,0.00,,,0.00,Wunderground v.1.15,2013-02-10 18:02:00,
2013-02-10 10:12:00,53.5,43.6,30.09,SSE,151,2.0,2.0,69,0.00,,,0.00,Wunderground v.1.15,2013-02-10 18:12:00,
2013-02-10 10:22:00,53.5,43.6,30.08,South,188,1.0,1.0,69,0.00,,,0.00,Wunderground v.1.15,2013-02-10 18:22:00,
2013-02-10 10:32:00,53.2,43.3,30.08,SSW,200,2.0,2.0,69,0.00,,,0.00,Wunderground v.1.15,2013-02-10 18:32:00,
2013-02-10 10:42:00,53.6,43.7,30.08,WNW,286,0.0,2.0,69,0.00,,,0.00,Wunderground v.1.15,2013-02-10 18:42:00,
2013-02-10 10:52:00,53.5,43.2,30.08,SW,221,2.0,2.0,68,0.00,,,0.00,Wunderground v.1.15,2013-02-10 18:52:00,
2013-02-10 11:02:00,53.2,43.7,30.08,WNW,296,2.0,2.0,70,0.00,,,0.00,Wunderground v.1.15,2013-02-10 19:02:00,
2013-02-10 11:12:00,53.4,43.9,30.08,West,279,2.0,2.0,70,0.00,,,0.00,Wunderground v.1.15,2013-02-10 19:12:00,
2013-02-10 11:22:00,53.5,43.6,30.08,NNW,338,2.0,2.0,69,0.00,,,0.00,Wunderground v.1.15,2013-02-10 19:22:00,
2013-02-10 11:32:00,53.7,43.8,30.07,WNW,296,1.0,1.0,69,0.00,,,0.00,Wunderground v.1.15,2013-02-10 19:32:00,
2013-02-10 11:42:00,54.1,43.8,30.07,WNW,296,0.0,2.0,68,0.00,,,0.00,Wunderground v.1.15,2013-02-10 19:42:00,
2013-02-10 11:52:00,54.4,44.1,30.06,South,188,2.0,2.0,68,0.00,,,0.00,Wunderground v.1.15,2013-02-10 19:52:00,
2013-02-10 12:02:00,54.4,43.7,30.06,South,175,1.0,1.0,67,0.00,,,0.00,Wunderground v.1.15,2013-02-10 20:02:00,
2013-02-10 12:12:00,54.7,43.6,30.05,SSE,160,2.0,2.0,66,0.00,,,0.00,Wunderground v.1.15,2013-02-10 20:12:00,
2013-02-10 12:22:00,55.0,43.8,30.05,SE,131,1.0,3.0,66,0.00,,,0.00,Wunderground v.1.15,2013-02-10 20:22:00,
2013-02-10 12:32:00,55.4,43.4,30.04,SE,135,2.0,2.0,64,0.00,,,0.00,Wunderground v.1.15,2013-02-10 20:32:00,
2013-02-10 12:42:00,55.9,44.3,30.03,East,80,1.0,2.0,65,0.00,,,0.00,Wunderground v.1.15,2013-02-10 20:42:00,
2013-02-10 12:52:00,56.1,44.1,30.03,ESE,107,2.0,2.0,64,0.00,,,0.00,Wunderground v.1.15,2013-02-10 20:52:00,
2013-02-10 13:02:00,57.1,43.8,30.02,SE,131,2.0,2.0,61,0.00,,,0.00,Wunderground v.1.15,2013-02-10 21:02:00,
2013-02-10 13:12:00,56.7,43.0,30.02,NNE,31,3.0,3.0,60,0.00,,,0.00,Wunderground v.1.15,2013-02-10 21:12:00,
2013-02-10 13:22:00,56.5,43.2,30.02,ENE,68,2.0,4.0,61,0.00,,,0.00,Wunderground v.1.15,2013-02-10 21:22:00,
2013-02-10 13:32:00,56.2,42.5,30.02,East,94,2.0,2.0,60,0.00,,,0.00,Wunderground v.1.15,2013-02-10 21:32:00,
2013-02-10 13:43:00,56.3,43.4,30.02,SSE,153,4.0,4.0,62,0.00,,,0.00,Wunderground v.1.15,2013-02-10 21:43:00,
2013-02-10 13:52:00,55.5,43.9,30.01,SSE,148,5.0,5.0,65,0.00,,,0.00,Wunderground v.1.15,2013-02-10 21:52:00,
2013-02-10 14:02:00,55.5,43.5,30.01,SW,216,4.0,6.0,64,0.00,,,0.00,Wunderground v.1.15,2013-02-10 22:02:00,
2013-02-10 14:12:00,55.1,43.1,30.01,South,175,5.0,5.0,64,0.00,,,0.00,Wunderground v.1.15,2013-02-10 22:12:00,
2013-02-10 14:22:00,55.0,43.0,30.01,SE,144,5.0,5.0,64,0.00,,,0.00,Wunderground v.1.15,2013-02-10 22:22:00,
2013-02-10 14:32:00,55.3,42.9,30.01,SSE,155,4.0,4.0,63,0.00,,,0.00,Wunderground v.1.15,2013-02-10 22:32:00,
2013-02-10 14:42:00,55.3,42.5,30.01,South,190,4.0,5.0,62,0.00,,,0.00,Wunderground v.1.15,2013-02-10 22:42:00,
2013-02-10 14:52:00,55.3,42.5,30.01,SSW,207,4.0,4.0,62,0.00,,,0.00,Wunderground v.1.15,2013-02-10 22:52:00,
2013-02-10 15:02:00,55.5,42.7,30.01,SSE,159,4.0,4.0,62,0.00,,,0.00,Wunderground v.1.15,2013-02-10 23:02:00,
2013-02-10 15:12:00,55.9,42.2,30.01,SSW,196,4.0,5.0,60,0.00,,,0.00,Wunderground v.1.15,2013-02-10 23:12:00,
2013-02-10 15:22:00,55.8,42.1,30.01,South,184,4.0,4.0,60,0.00,,,0.00,Wunderground v.1.15,2013-02-10 23:22:00,
2013-02-10 15:32:00,55.6,41.9,30.01,SSE,156,3.0,3.0,60,0.00,,,0.00,Wunderground v.1.15,2013-02-10 23:32:00,
2013-02-10 15:42:00,55.4,41.3,30.01,SE,142,2.0,2.0,59,0.00,,,0.00,Wunderground v.1.15,2013-02-10 23:42:00,
2013-02-10 15:52:00,55.2,42.0,30.00,SSW,208,2.0,4.0,61,0.00,,,0.00,Wunderground v.1.15,2013-02-10 23:52:00,
2013-02-10 16:02:00,55.0,41.8,30.00,SSW,209,3.0,4.0,61,0.00,,,0.00,Wunderground v.1.15,2013-02-11 00:02:00,
2013-02-10 16:12:00,54.9,41.7,30.00,South,173,2.0,2.0,61,0.00,,,0.00,Wunderground v.1.15,2013-02-11 00:12:00,
2013-02-10 16:22:00,54.7,41.5,30.01,SSE,157,2.0,2.0,61,0.00,,,0.00,Wunderground v.1.15,2013-02-11 00:22:00,
2013-02-10 16:32:00,54.6,41.8,30.00,South,182,2.0,2.0,62,0.00,,,0.00,Wunderground v.1.15,2013-02-11 00:32:00,
2013-02-10 16:42:00,54.6,42.3,30.00,SSE,150,2.0,2.0,63,0.00,,,0.00,Wunderground v.1.15,2013-02-11 00:42:00,
2013-02-10 16:52:00,54.5,41.3,30.00,SE,138,3.0,3.0,61,0.00,,,0.00,Wunderground v.1.15,2013-02-11 00:52:00,
2013-02-10 17:02:00,54.5,41.3,30.00,SSE,157,3.0,3.0,61,0.00,,,0.00,Wunderground v.1.15,2013-02-11 01:02:00,
2013-02-10 17:12:00,54.4,40.8,30.01,SSE,159,3.0,3.0,60,0.00,,,0.00,Wunderground v.1.15,2013-02-11 01:12:00,
2013-02-10 17:22:00,54.2,41.5,30.01,SSE,165,3.0,3.0,62,0.00,,,0.00,Wunderground v.1.15,2013-02-11 01:22:00,
2013-02-10 17:32:00,54.0,42.1,30.01,SE,137,3.0,5.0,64,0.00,,,0.00,Wunderground v.1.15,2013-02-11 01:32:00,
2013-02-10 17:42:00,53.7,42.2,30.01,South,178,4.0,6.0,65,0.00,,,0.00,Wunderground v.1.15,2013-02-11 01:42:00,
2013-02-10 17:52:00,53.5,42.4,30.01,SSE,155,3.0,3.0,66,0.00,,,0.00,Wunderground v.1.15,2013-02-11 01:52:00,
2013-02-10 18:02:00,53.3,42.2,30.02,South,169,2.0,4.0,66,0.00,,,0.00,Wunderground v.1.15,2013-02-11 02:02:00,
2013-02-10 18:12:00,53.3,42.2,30.02,South,188,2.0,4.0,66,0.00,,,0.00,Wunderground v.1.15,2013-02-11 02:12:00,
2013-02-10 18:22:00,53.2,42.5,30.01,SSW,207,4.0,5.0,67,0.00,,,0.00,Wunderground v.1.15,2013-02-11 02:22:00,
2013-02-10 18:32:00,53.1,43.2,30.02,SSW,211,3.0,3.0,69,0.00,,,0.00,Wunderground v.1.15,2013-02-11 02:32:00,
2013-02-10 18:42:00,52.9,43.4,30.02,South,178,3.0,3.0,70,0.00,,,0.00,Wunderground v.1.15,2013-02-11 02:42:00,
2013-02-10 18:52:00,52.8,43.7,30.02,South,187,2.0,2.0,71,0.00,,,0.00,Wunderground v.1.15,2013-02-11 02:52:00,
2013-02-10 19:03:00,52.5,43.4,30.02,South,188,1.0,1.0,71,0.00,,,0.00,Wunderground v.1.15,2013-02-11 03:03:00,
2013-02-10 19:12:00,52.2,43.8,30.02,South,187,1.0,1.0,73,0.00,,,0.00,Wunderground v.1.15,2013-02-11 03:12:00,
2013-02-10 19:22:00,51.8,43.8,30.03,South,187,0.0,0.0,74,0.00,,,0.00,Wunderground v.1.15,2013-02-11 03:22:00,
2013-02-10 19:32:00,51.4,43.7,30.03,South,187,0.0,0.0,75,0.00,,,0.00,Wunderground v.1.15,2013-02-11 03:32:00,
2013-02-10 19:42:00,51.0,43.7,30.03,South,187,0.0,0.0,76,0.00,,,0.00,Wunderground v.1.15,2013-02-11 03:42:00,
2013-02-10 19:52:00,50.7,43.8,30.03,South,187,0.0,1.0,77,0.00,,,0.00,Wunderground v.1.15,2013-02-11 03:52:00,
2013-02-10 20:02:00,50.7,43.8,30.03,South,187,1.0,1.0,77,0.00,,,0.00,Wunderground v.1.15,2013-02-11 04:02:00,
2013-02-10 20:12:00,50.9,44.3,30.03,SSW,196,1.0,1.0,78,0.00,,,0.00,Wunderground v.1.15,2013-02-11 04:12:00,
2013-02-10 20:22:00,51.1,44.5,30.03,SSW,196,1.0,1.0,78,0.00,,,0.00,Wunderground v.1.15,2013-02-11 04:22:00,
2013-02-10 20:32:00,51.1,44.5,30.04,SSW,196,0.0,0.0,78,0.00,,,0.00,Wunderground v.1.15,2013-02-11 04:32:00,
2013-02-10 20:42:00,50.9,44.9,30.04,SSW,196,0.0,1.0,80,0.00,,,0.00,Wunderground v.1.15,2013-02-11 04:42:00,
2013-02-10 20:52:00,51.0,44.7,30.04,SSW,196,0.0,1.0,79,0.00,,,0.00,Wunderground v.1.15,2013-02-11 04:52:00,
2013-02-10 21:02:00,50.0,43.7,30.04,SSW,196,1.0,1.0,79,0.00,,,0.00,Wunderground v.1.15,2013-02-11 05:02:00,
2013-02-10 21:12:00,49.3,43.7,30.05,SSW,196,1.0,1.0,81,0.00,,,0.00,Wunderground v.1.15,2013-02-11 05:12:00,
2013-02-10 21:22:00,48.9,43.6,30.05,SSW,196,0.0,0.0,82,0.00,,,0.00,Wunderground v.1.15,2013-02-11 05:22:00,
2013-02-10 21:32:00,48.8,43.5,30.05,SSW,196,0.0,0.0,82,0.00,,,0.00,Wunderground v.1.15,2013-02-11 05:32:00,
2013-02-10 21:42:00,48.7,43.8,30.05,SSW,196,0.0,0.0,83,0.00,,,0.00,Wunderground v.1.15,2013-02-11 05:42:00,
2013-02-10 22:02:00,48.9,44.3,30.05,SSW,196,0.0,0.0,84,0.00,,,0.00,Wunderground v.1.15,2013-02-11 06:02:00,
2013-02-10 22:12:00,49.2,44.6,30.05,SSW,196,0.0,0.0,84,0.00,,,0.00,Wunderground v.1.15,2013-02-11 06:12:00,
2013-02-10 22:22:00,49.5,44.6,30.05,SSE,163,0.0,2.0,83,0.00,,,0.00,Wunderground v.1.15,2013-02-11 06:22:00,
2013-02-10 22:32:00,49.5,44.6,30.05,SSE,163,0.0,0.0,83,0.00,,,0.00,Wunderground v.1.15,2013-02-11 06:32:00,
2013-02-10 22:42:00,49.3,44.4,30.05,SSE,163,0.0,0.0,83,0.00,,,0.00,Wunderground v.1.15,2013-02-11 06:42:00,
2013-02-10 22:52:00,49.2,44.3,30.05,SSE,163,0.0,0.0,83,0.00,,,0.00,Wunderground v.1.15,2013-02-11 06:52:00,
2013-02-10 23:02:00,49.2,44.6,30.05,SSE,153,0.0,1.0,84,0.00,,,0.00,Wunderground v.1.15,2013-02-11 07:02:00,
2013-02-10 23:12:00,49.3,44.4,30.05,SSE,153,0.0,1.0,83,0.00,,,0.00,Wunderground v.1.15,2013-02-11 07:12:00,
2013-02-10 23:22:00,49.5,44.9,30.05,SSE,153,0.0,0.0,84,0.00,,,0.00,Wunderground v.1.15,2013-02-11 07:22:00,
2013-02-10 23:32:00,49.4,44.8,30.06,SSE,153,0.0,0.0,84,0.00,,,0.00,Wunderground v.1.15,2013-02-11 07:32:00,
2013-02-10 23:42:00,50.2,46.2,30.06,SSE,153,0.0,0.0,86,0.00,,,0.00,Wunderground v.1.15,2013-02-11 07:42:00,
2013-02-10 23:52:00,50.7,45.1,30.06,SSE,153,0.0,0.0,81,0.00,,,0.00,Wunderground v.1.15,2013-02-11 07:52:00,